Time;durP1;ratioP1;P1;durP2;ratioP2;P2;SDS_P1;SDS_P2;PMS_P1;PMS_P2;Temp;Humidity;BMP_temperature;BMP_pressure;BME280_temperature;BME280_humidity;BME280_pressure;Samples;Min_cycle;Max_cycle;Signal;HPM_P1;HPM_P2
2022/03/03 00:00:13;;;;;;;55.33;22.52;;;;;;;0.14;54.46;102338.91;4942026;28;20530;-70
2022/03/03 00:02:39;;;;;;;65.43;24.25;;;;;;;0.14;55.12;102326.03;4927000;28;20119;-71
2022/03/03 00:05:05;;;;;;;63.08;24.70;;;;;;;0.21;55.21;102321.13;4928930;28;20050;-69
2022/03/03 00:07:31;;;;;;;55.97;23.75;;;;;;;0.38;55.10;102315.53;4940896;28;20039;-71
2022/03/03 00:09:56;;;;;;;59.90;23.10;;;;;;;0.37;55.38;102318.94;4942650;28;20035;-70
2022/03/03 00:12:22;;;;;;;57.15;23.40;;;;;;;0.50;54.67;102315.81;4926948;28;20047;-70
2022/03/03 00:14:47;;;;;;;56.63;23.45;;;;;;;0.47;54.09;102323.47;4926261;28;20094;-70
2022/03/03 00:17:13;;;;;;;59.00;26.13;;;;;;;0.45;54.19;102315.72;4928224;28;20047;-71
2022/03/03 00:19:38;;;;;;;65.35;23.52;;;;;;;0.33;54.79;102305.13;4924015;28;20065;-69
2022/03/03 00:22:04;;;;;;;59.20;23.27;;;;;;;0.42;54.21;102310.50;4926576;28;20134;-69
2022/03/03 00:24:30;;;;;;;67.68;22.58;;;;;;;0.42;54.59;102312.22;4925775;28;20115;-69
2022/03/03 00:26:55;;;;;;;55.53;23.60;;;;;;;0.29;54.72;102311.03;4926972;28;20552;-70
2022/03/03 00:29:21;;;;;;;61.67;23.67;;;;;;;0.26;54.84;102303.25;4925351;28;20027;-69
2022/03/03 00:31:47;;;;;;;64.15;24.13;;;;;;;0.33;54.71;102306.84;4925041;28;20130;-68
2022/03/03 00:34:13;;;;;;;60.08;25.45;;;;;;;0.31;54.75;102303.34;4925659;28;20035;-69
2022/03/03 00:36:40;;;;;;;61.20;25.02;;;;;;;0.25;54.60;102294.63;4926256;28;20090;-70
2022/03/03 00:39:06;;;;;;;56.80;23.65;;;;;;;0.19;54.55;102293.59;4930181;28;20054;-69
2022/03/03 00:41:31;;;;;;;63.40;25.55;;;;;;;0.07;54.86;102292.44;4926936;28;20039;-71
2022/03/03 00:43:57;;;;;;;69.35;25.00;;;;;;;0.15;54.85;102289.22;4926476;28;20499;-70
2022/03/03 00:46:25;;;;;;;64.05;25.30;;;;;;;0.26;54.51;102301.53;4926832;28;20035;-69
2022/03/03 00:48:51;;;;;;;64.18;24.38;;;;;;;0.25;54.59;102294.63;4924866;28;21414;-70
2022/03/03 00:51:17;;;;;;;60.85;23.73;;;;;;;0.27;54.37;102305.81;4928445;28;20043;-71
2022/03/03 00:53:43;;;;;;;64.47;22.45;;;;;;;0.25;54.26;102304.91;4927776;28;20417;-70
2022/03/03 00:56:08;;;;;;;61.75;25.55;;;;;;;0.19;54.33;102307.34;4926026;28;20035;-69
2022/03/03 00:58:33;;;;;;;59.83;24.83;;;;;;;0.07;54.66;102313.00;4923847;28;20113;-68
2022/03/03 01:01:01;;;;;;;65.80;24.33;;;;;;;0.23;54.59;102308.28;4923223;28;20043;-68
2022/03/03 01:03:27;;;;;;;61.85;24.63;;;;;;;0.11;54.42;102313.13;4925022;28;20047;-68
2022/03/03 01:05:53;;;;;;;71.45;25.20;;;;;;;-0.00;54.62;102310.25;4925037;28;20265;-68
2022/03/03 01:08:18;;;;;;;67.72;26.38;;;;;;;-0.02;54.63;102310.19;4926473;28;20863;-68
2022/03/03 01:10:44;;;;;;;53.95;22.77;;;;;;;-0.05;54.48;102310.13;4925833;28;20039;-68
2022/03/03 01:13:09;;;;;;;60.47;23.33;;;;;;;-0.07;54.42;102309.22;4923805;28;20047;-68
2022/03/03 01:15:35;;;;;;;55.28;24.52;;;;;;;-0.08;54.53;102301.47;4924981;28;20054;-68
2022/03/03 01:18:00;;;;;;;57.00;22.38;;;;;;;-0.16;54.29;102299.56;4923779;28;20138;-68
2022/03/03 01:20:27;;;;;;;55.88;24.30;;;;;;;-0.20;53.95;102305.44;4925993;28;20119;-68
2022/03/03 01:22:54;;;;;;;57.80;22.83;;;;;;;-0.24;54.15;102301.03;4924315;28;20509;-68
2022/03/03 01:25:19;;;;;;;57.65;24.23;;;;;;;-0.24;54.06;102298.47;4926624;28;20377;-69
2022/03/03 01:27:45;;;;;;;57.92;22.10;;;;;;;-0.32;53.95;102292.25;4942446;28;20531;-69
2022/03/03 01:30:11;;;;;;;58.60;22.88;;;;;;;-0.23;54.00;102294.22;4924346;28;20028;-74
2022/03/03 01:32:37;;;;;;;67.57;26.05;;;;;;;-0.40;54.05;102294.59;4923942;28;20043;-72
2022/03/03 01:35:03;;;;;;;56.42;22.92;;;;;;;-0.48;54.04;102301.22;4925320;28;20082;-73
2022/03/03 01:37:28;;;;;;;56.72;24.02;;;;;;;-0.39;53.81;102287.78;4923347;28;20055;-70
2022/03/03 01:39:54;;;;;;;59.78;23.13;;;;;;;-0.50;54.16;102284.00;4925039;28;20039;-68
2022/03/03 01:42:20;;;;;;;52.92;22.75;;;;;;;-0.48;53.92;102292.63;4931726;28;20086;-68
2022/03/03 01:44:46;;;;;;;52.50;22.50;;;;;;;-0.54;53.97;102292.47;4929667;28;21007;-69
2022/03/03 01:47:21;;;;;;;56.35;20.98;;;;;;;-0.61;53.84;102289.72;4929903;28;20039;-68
2022/03/03 01:49:48;;;;;;;59.08;22.20;;;;;;;-0.63;53.76;102283.66;4945881;28;20071;-68
2022/03/03 01:52:13;;;;;;;54.60;22.70;;;;;;;-0.68;53.66;102282.69;4929887;28;20134;-68
2022/03/03 01:54:40;;;;;;;57.00;22.95;;;;;;;-0.75;53.67;102278.16;4930670;28;20102;-69
2022/03/03 01:57:07;;;;;;;59.50;23.58;;;;;;;-0.83;53.64;102279.66;4932483;28;20040;-68
2022/03/03 01:59:33;;;;;;;55.33;21.75;;;;;;;-0.82;53.84;102278.81;4931392;28;20039;-68
2022/03/03 02:01:58;;;;;;;66.03;25.73;;;;;;;-0.79;53.90;102276.34;4930171;28;20535;-68
2022/03/03 02:04:24;;;;;;;49.60;20.38;;;;;;;-0.77;54.01;102279.84;4930506;28;20035;-68
2022/03/03 02:06:49;;;;;;;56.33;22.63;;;;;;;-0.70;53.83;102284.31;4932210;28;20106;-68
2022/03/03 02:09:16;;;;;;;54.42;23.88;;;;;;;-0.66;53.45;102278.47;4928526;28;20493;-68
2022/03/03 02:11:46;;;;;;;67.13;26.67;;;;;;;-0.80;53.98;102283.16;4930549;28;20125;-68
2022/03/03 02:14:11;;;;;;;56.88;21.77;;;;;;;-0.74;54.38;102290.19;4930236;28;20142;-68
2022/03/03 02:16:37;;;;;;;62.35;26.00;;;;;;;-0.69;54.63;102287.75;4930642;28;20828;-68
2022/03/03 02:19:03;;;;;;;60.45;23.98;;;;;;;-0.70;54.42;102286.91;4932582;28;20058;-68
2022/03/03 02:21:30;;;;;;;61.90;24.65;;;;;;;-0.62;54.44;102287.97;4929905;28;20034;-68
2022/03/03 02:23:56;;;;;;;60.67;25.23;;;;;;;-0.54;54.36;102279.63;4929813;28;20042;-68
2022/03/03 02:26:23;;;;;;;63.13;24.88;;;;;;;-0.50;54.34;102287.47;4929706;28;20032;-71
2022/03/03 02:28:50;;;;;;;56.78;24.10;;;;;;;-0.46;54.22;102288.41;4930046;28;20043;-72
2022/03/03 02:31:17;;;;;;;55.65;23.00;;;;;;;-0.48;54.36;102284.94;4932399;28;20035;-74
2022/03/03 02:33:43;;;;;;;59.53;23.85;;;;;;;-0.44;54.11;102282.50;4934221;28;20134;-72
2022/03/03 02:36:16;;;;;;;58.25;24.85;;;;;;;-0.49;53.87;102275.50;4931825;28;20049;-72
2022/03/03 02:38:41;;;;;;;61.72;24.55;;;;;;;-0.50;54.07;102279.78;4929207;28;20055;-68
2022/03/03 02:41:07;;;;;;;70.40;24.60;;;;;;;-0.65;54.05;102276.75;4933161;28;20485;-69
2022/03/03 02:43:32;;;;;;;62.13;23.13;;;;;;;-0.66;53.81;102275.88;4945440;28;20080;-68
2022/03/03 02:45:58;;;;;;;61.92;24.25;;;;;;;-0.69;53.60;102280.91;4929747;28;20725;-69
2022/03/03 02:48:24;;;;;;;60.17;24.02;;;;;;;-0.86;54.24;102284.69;4931773;28;20408;-69
2022/03/03 02:50:49;;;;;;;67.18;27.92;;;;;;;-1.02;54.90;102271.41;4931110;28;20130;-69
2022/03/03 02:53:14;;;;;;;66.95;26.40;;;;;;;-0.80;54.43;102277.16;4929073;28;20146;-69
2022/03/03 02:55:40;;;;;;;69.78;25.67;;;;;;;-0.83;54.83;102274.50;4926802;28;20124;-69
2022/03/03 02:58:05;;;;;;;62.95;25.98;;;;;;;-0.80;54.58;102272.88;4940139;28;20050;-68
2022/03/03 03:00:42;;;;;;;68.40;24.85;;;;;;;-0.87;55.08;102280.38;4942376;28;20126;-72
2022/03/03 03:03:08;;;;;;;63.55;25.52;;;;;;;-0.81;54.93;102270.31;4929067;28;20043;-73
2022/03/03 03:05:34;;;;;;;66.40;26.98;;;;;;;-0.81;54.81;102270.31;4931455;28;20042;-73
2022/03/03 03:07:59;;;;;;;68.53;26.90;;;;;;;-0.78;54.82;102262.69;4935514;28;20396;-74
2022/03/03 03:10:25;;;;;;;68.53;25.95;;;;;;;-0.82;55.52;102269.41;4927515;28;20039;-73
2022/03/03 03:12:50;;;;;;;83.95;28.88;;;;;;;-0.79;55.33;102264.38;4925826;28;20054;-72
2022/03/03 03:15:17;;;;;;;64.72;26.23;;;;;;;-0.70;54.96;102268.06;4930081;28;20098;-71
2022/03/03 03:17:42;;;;;;;73.03;27.63;;;;;;;-0.73;55.28;102263.69;4924395;28;20055;-72
2022/03/03 03:20:08;;;;;;;67.85;26.17;;;;;;;-0.70;55.26;102258.66;4927854;28;20070;-73
2022/03/03 03:22:35;;;;;;;64.20;25.05;;;;;;;-0.70;55.07;102268.91;4924294;28;20043;-73
2022/03/03 03:25:01;;;;;;;68.80;25.40;;;;;;;-0.75;55.12;102265.31;4927082;28;20110;-73
2022/03/03 03:27:27;;;;;;;74.93;27.92;;;;;;;-0.72;55.51;102257.72;4928228;28;20428;-73
2022/03/03 03:29:52;;;;;;;66.28;27.65;;;;;;;-0.68;55.62;102256.09;4926897;28;20027;-73
2022/03/03 03:32:18;;;;;;;66.40;26.27;;;;;;;-0.69;55.50;102244.97;4928496;28;20043;-72
2022/03/03 03:34:43;;;;;;;61.65;24.50;;;;;;;-0.72;55.02;102250.03;4924978;28;20034;-72
2022/03/03 03:37:09;;;;;;;68.55;25.95;;;;;;;-0.75;55.14;102244.78;4928045;28;20039;-73
2022/03/03 03:39:34;;;;;;;65.30;25.10;;;;;;;-0.78;55.23;102242.13;4929222;28;20077;-73
2022/03/03 03:42:00;;;;;;;64.55;25.83;;;;;;;-0.73;55.09;102240.56;4927699;28;20039;-74
2022/03/03 03:44:26;;;;;;;72.05;27.30;;;;;;;-0.80;55.12;102239.53;4924924;28;20059;-72
2022/03/03 03:46:51;;;;;;;62.08;26.00;;;;;;;-0.82;55.04;102236.03;4925852;28;20382;-74
2022/03/03 03:49:16;;;;;;;60.10;26.42;;;;;;;-0.80;55.20;102239.53;4925262;28;20036;-72
2022/03/03 03:51:42;;;;;;;64.32;25.48;;;;;;;-0.87;55.36;102234.16;4925190;28;20067;-73
2022/03/03 03:54:07;;;;;;;64.43;27.30;;;;;;;-0.94;55.32;102230.56;4926005;28;20149;-72
2022/03/03 03:56:33;;;;;;;65.43;26.77;;;;;;;-0.89;55.13;102230.69;4925979;28;20120;-72
2022/03/03 03:58:59;;;;;;;68.90;27.58;;;;;;;-0.89;55.52;102223.00;4941816;28;20050;-72
2022/03/03 04:01:26;;;;;;;75.90;25.85;;;;;;;-0.86;55.48;102215.38;4909752;28;20072;-72
2022/03/03 04:03:53;;;;;;;68.80;27.35;;;;;;;-0.87;55.73;102218.78;4926175;28;20043;-70
2022/03/03 04:06:19;;;;;;;63.83;25.58;;;;;;;-0.85;55.97;102222.25;4925980;28;20034;-69
2022/03/03 04:08:44;;;;;;;74.35;28.13;;;;;;;-0.83;55.91;102223.19;4925205;28;20110;-70
2022/03/03 04:11:10;;;;;;;68.72;27.63;;;;;;;-0.87;55.92;102214.50;4925602;28;20118;-70
2022/03/03 04:13:35;;;;;;;69.95;28.52;;;;;;;-0.81;55.85;102224.09;4923306;28;20546;-69
2022/03/03 04:16:01;;;;;;;75.88;27.98;;;;;;;-0.75;55.88;102224.25;4926601;28;20522;-69
2022/03/03 04:18:27;;;;;;;72.55;27.92;;;;;;;-0.82;55.89;102225.75;4926533;28;20949;-71
2022/03/03 04:20:52;;;;;;;67.22;26.52;;;;;;;-0.84;55.98;102204.34;4925208;28;20178;-70
2022/03/03 04:23:19;;;;;;;74.93;27.95;;;;;;;-0.85;56.10;102204.28;4925711;28;20082;-70
2022/03/03 04:25:45;;;;;;;69.40;27.55;;;;;;;-0.84;55.94;102209.47;4925926;28;20040;-71
2022/03/03 04:28:10;;;;;;;78.28;29.42;;;;;;;-0.89;56.42;102207.59;4923767;28;20403;-72
2022/03/03 04:30:35;;;;;;;71.03;25.42;;;;;;;-1.01;56.48;102211.53;4928185;28;20568;-71
2022/03/03 04:33:01;;;;;;;69.55;27.00;;;;;;;-0.82;56.00;102204.38;4923701;28;20050;-68
2022/03/03 04:35:27;;;;;;;74.18;27.80;;;;;;;-0.94;56.25;102212.59;4924663;28;20039;-68
2022/03/03 04:37:52;;;;;;;82.20;26.55;;;;;;;-0.85;55.51;102209.41;4926318;28;20774;-72
2022/03/03 04:40:18;;;;;;;68.70;27.35;;;;;;;-0.91;55.63;102201.53;4929362;28;20035;-71
2022/03/03 04:42:43;;;;;;;74.82;28.02;;;;;;;-1.00;55.26;102200.44;4923297;28;20676;-71
2022/03/03 04:45:11;;;;;;;67.03;25.02;;;;;;;-1.10;55.46;102211.25;4925440;28;20063;-71
2022/03/03 04:47:36;;;;;;;73.75;26.25;;;;;;;-1.11;55.56;102204.34;4923845;28;20143;-71
2022/03/03 04:50:03;;;;;;;64.72;27.08;;;;;;;-1.13;55.95;102192.28;4926651;28;20115;-74
2022/03/03 04:52:28;;;;;;;73.93;28.17;;;;;;;-1.12;55.61;102192.34;4927367;28;20048;-73
2022/03/03 04:54:53;;;;;;;78.38;29.45;;;;;;;-1.16;56.11;102205.91;4925244;28;20069;-71
2022/03/03 04:57:19;;;;;;;70.53;27.70;;;;;;;-1.13;55.51;102200.00;4927150;28;20130;-71
2022/03/03 04:59:44;;;;;;;70.15;27.35;;;;;;;-1.26;55.47;102198.78;4924670;28;20083;-71
2022/03/03 05:02:10;;;;;;;75.22;26.67;;;;;;;-1.26;55.38;102199.66;4926681;28;20106;-72
2022/03/03 05:04:35;;;;;;;67.93;26.15;;;;;;;-1.27;55.52;102191.88;4925003;28;20062;-71
2022/03/03 05:07:01;;;;;;;67.10;26.40;;;;;;;-1.34;55.38;102202.78;4927683;28;20035;-72
2022/03/03 05:09:26;;;;;;;65.35;26.23;;;;;;;-1.34;55.63;102200.22;4929626;28;20090;-72
2022/03/03 05:11:52;;;;;;;79.75;27.92;;;;;;;-1.40;55.55;102204.34;4930413;28;20038;-67
2022/03/03 05:14:17;;;;;;;83.57;27.15;;;;;;;-1.39;56.16;102200.09;4925311;28;20086;-67
2022/03/03 05:16:43;;;;;;;74.43;28.30;;;;;;;-1.31;56.00;102210.56;4927578;28;20059;-68
2022/03/03 05:19:08;;;;;;;64.70;27.35;;;;;;;-1.36;56.14;102202.75;4924441;28;20044;-69
2022/03/03 05:21:34;;;;;;;70.55;27.25;;;;;;;-1.37;56.63;102195.88;4927592;28;20549;-73
2022/03/03 05:24:00;;;;;;;71.53;27.10;;;;;;;-1.25;56.59;102201.38;4938608;28;20047;-69
2022/03/03 05:26:26;;;;;;;82.88;27.88;;;;;;;-1.19;56.54;102203.28;4940485;28;20047;-71
2022/03/03 05:28:51;;;;;;;69.35;26.80;;;;;;;-1.16;56.02;102211.03;4938703;28;20039;-67
2022/03/03 05:31:17;;;;;;;79.70;29.92;;;;;;;-1.24;55.51;102217.63;4927760;28;20039;-68
2022/03/03 05:33:43;;;;;;;82.85;30.42;;;;;;;-1.34;56.04;102219.06;4926957;28;20042;-72
2022/03/03 05:36:10;;;;;;;78.05;29.75;;;;;;;-1.34;56.21;102225.88;4924159;28;20774;-72
2022/03/03 05:38:36;;;;;;;73.75;26.15;;;;;;;-1.28;55.91;102220.94;4924409;28;20075;-73
2022/03/03 05:41:03;;;;;;;75.55;27.17;;;;;;;-1.31;56.18;102215.72;4925392;28;20130;-72
2022/03/03 05:43:28;;;;;;;70.15;27.52;;;;;;;-1.33;56.11;102213.13;4925920;28;20130;-72
2022/03/03 05:45:55;;;;;;;78.30;27.67;;;;;;;-1.44;56.32;102210.22;4926388;28;20043;-74
2022/03/03 05:48:21;;;;;;;70.80;28.58;;;;;;;-1.29;55.70;102219.19;4926674;28;20600;-72
2022/03/03 05:50:47;;;;;;;66.95;27.58;;;;;;;-1.39;55.93;102212.91;4922885;28;20064;-73
2022/03/03 05:53:13;;;;;;;85.00;29.08;;;;;;;-1.32;56.28;102216.53;4924823;28;20047;-73
2022/03/03 05:55:50;;;;;;;72.50;29.17;;;;;;;-1.34;56.62;102213.06;4929877;28;20032;-71
2022/03/03 05:58:17;;;;;;;76.53;26.60;;;;;;;-1.41;56.70;102207.72;4923009;28;20176;-70
2022/03/03 06:00:48;;;;;;;77.93;28.60;;;;;;;-1.30;56.34;102215.75;4925137;28;20024;-74
2022/03/03 06:03:19;;;;;;;72.55;26.35;;;;;;;-1.34;56.43;102206.22;4924777;28;20131;-73
2022/03/03 06:05:57;;;;;;;64.75;27.88;;;;;;;-1.36;56.47;102217.25;4925596;28;20126;-73
2022/03/03 06:08:29;;;;;;;72.00;25.55;;;;;;;-1.45;56.25;102216.16;4926190;28;20043;-74
2022/03/03 06:11:00;;;;;;;70.72;26.10;;;;;;;-1.35;56.03;102212.19;4922973;28;20039;-73
2022/03/03 06:13:30;;;;;;;65.70;25.23;;;;;;;-1.32;55.84;102219.97;4927501;28;20078;-74
2022/03/03 06:15:56;;;;;;;74.40;27.90;;;;;;;-1.41;55.74;102220.56;4943046;28;20063;-74
2022/03/03 06:18:28;;;;;;;61.17;25.25;;;;;;;-1.44;55.33;102220.47;4927288;28;20135;-73
2022/03/03 06:20:54;;;;;;;58.25;23.27;;;;;;;-1.54;55.52;102236.38;4923878;28;20086;-73
2022/03/03 06:23:20;;;;;;;63.70;26.52;;;;;;;-1.57;55.84;102230.28;4926140;28;20784;-74
2022/03/03 06:25:51;;;;;;;67.70;24.23;;;;;;;-1.57;55.59;102228.59;4923442;28;20150;-74
2022/03/03 06:28:16;;;;;;;62.90;25.02;;;;;;;-1.59;55.45;102217.41;4926171;28;20089;-73
2022/03/03 06:30:42;;;;;;;62.38;24.00;;;;;;;-1.60;55.58;102224.25;4927462;28;20039;-74
2022/03/03 06:33:07;;;;;;;59.85;23.23;;;;;;;-1.59;55.55;102209.72;4927316;28;20138;-72
2022/03/03 06:35:35;;;;;;;64.30;23.67;;;;;;;-1.63;55.71;102207.88;4927939;28;20046;-74
2022/03/03 06:38:06;;;;;;;69.25;22.92;;;;;;;-1.53;55.71;102206.47;4927217;28;20075;-73
2022/03/03 06:40:32;;;;;;;55.17;22.73;;;;;;;-1.51;55.41;102202.25;4930310;28;20093;-74
2022/03/03 06:43:00;;;;;;;49.47;23.17;;;;;;;-1.47;55.51;102210.09;4927419;28;20098;-73
2022/03/03 06:45:28;;;;;;;53.58;22.92;;;;;;;-1.62;55.49;102214.72;4927888;28;20090;-72
2022/03/03 06:47:55;;;;;;;54.63;21.63;;;;;;;-1.59;55.60;102212.28;4925771;28;20362;-74
2022/03/03 06:50:20;;;;;;;57.63;19.75;;;;;;;-1.38;55.12;102214.66;4946491;28;20063;-73
2022/03/03 06:52:51;;;;;;;53.05;23.35;;;;;;;-1.32;55.08;102225.09;4930923;28;20051;-74
2022/03/03 06:55:24;;;;;;;46.80;19.70;;;;;;;-1.29;54.91;102227.75;4929817;28;20042;-74
2022/03/03 06:57:53;;;;;;;50.03;19.38;;;;;;;-1.31;54.81;102220.84;4942568;28;20048;-74
2022/03/03 07:00:25;;;;;;;58.65;20.13;;;;;;;-1.09;54.60;102223.22;4930770;28;20036;-73
2022/03/03 07:02:52;;;;;;;58.85;21.40;;;;;;;-1.06;54.31;102228.50;4925112;28;21264;-72
2022/03/03 07:05:18;;;;;;;60.50;23.27;;;;;;;-1.11;54.37;102249.66;4944473;28;20151;-72
2022/03/03 07:07:47;;;;;;;54.25;22.50;;;;;;;-1.09;54.37;102243.75;4944208;28;20162;-71
2022/03/03 07:10:14;;;;;;;53.75;21.45;;;;;;;-0.92;54.30;102240.88;4929195;28;20042;-71
2022/03/03 07:12:41;;;;;;;55.10;22.17;;;;;;;-0.79;54.77;102237.84;4926699;28;20154;-72
2022/03/03 07:15:08;;;;;;;46.80;19.67;;;;;;;0.41;51.32;102221.31;4932063;28;20043;-72
2022/03/03 07:17:40;;;;;;;48.53;20.75;;;;;;;2.34;48.76;102224.31;4943547;28;20488;-72
2022/03/03 07:20:10;;;;;;;48.80;20.15;;;;;;;4.35;46.04;102223.25;4928898;28;20039;-71
2022/03/03 07:22:40;;;;;;;44.58;21.40;;;;;;;6.26;39.01;102223.97;4941258;28;20039;-70
2022/03/03 07:25:14;;;;;;;46.78;19.52;;;;;;;7.49;38.46;102211.53;4928899;28;20035;-70
2022/03/03 07:27:44;;;;;;;34.65;17.77;;;;;;;8.15;34.19;102216.28;4926462;28;20070;-70
2022/03/03 07:30:17;;;;;;;40.28;18.67;;;;;;;8.33;32.96;102224.81;4928696;28;20098;-70
2022/03/03 07:32:58;;;;;;;42.20;17.95;;;;;;;8.15;32.17;102218.03;4923468;28;20520;-71
2022/03/03 07:35:25;;;;;;;39.60;16.95;;;;;;;7.99;31.43;102225.09;4942306;28;20055;-71
2022/03/03 07:37:53;;;;;;;40.28;18.40;;;;;;;8.15;32.18;102205.00;4938833;28;21319;-71
2022/03/03 07:40:19;;;;;;;36.25;16.77;;;;;;;8.38;31.82;102202.19;4941356;28;20126;-71
2022/03/03 07:42:45;;;;;;;36.53;17.70;;;;;;;8.24;32.17;102209.25;4927054;28;20663;-70
2022/03/03 07:45:12;;;;;;;38.50;18.08;;;;;;;8.32;31.64;102200.50;4930261;28;20050;-70
2022/03/03 07:47:39;;;;;;;31.50;18.00;;;;;;;8.30;31.02;102204.00;4928731;28;20122;-72
2022/03/03 07:50:06;;;;;;;33.08;17.70;;;;;;;8.48;30.55;102206.44;4928671;28;20042;-71
2022/03/03 07:52:31;;;;;;;32.08;17.02;;;;;;;9.41;29.68;102203.63;4922976;28;20138;-70
2022/03/03 07:54:57;;;;;;;33.85;18.70;;;;;;;10.03;28.52;102200.97;4926269;28;20509;-70
2022/03/03 07:57:25;;;;;;;33.88;18.38;;;;;;;9.94;27.85;102201.13;4928373;28;20048;-70
2022/03/03 08:00:04;;;;;;;37.20;19.27;;;;;;;9.72;28.79;102208.38;4929153;28;20034;-71
2022/03/03 08:02:32;;;;;;;34.97;19.08;;;;;;;9.87;28.83;102212.56;4928657;28;20128;-71
2022/03/03 08:05:00;;;;;;;38.08;20.52;;;;;;;11.29;28.17;102208.22;4927021;28;20072;-72
2022/03/03 08:07:27;;;;;;;40.03;20.75;;;;;;;11.45;25.96;102197.34;4929303;28;20531;-70
2022/03/03 08:09:58;;;;;;;32.72;18.55;;;;;;;11.88;25.52;102191.13;4940950;28;20488;-71
2022/03/03 08:12:24;;;;;;;33.38;18.15;;;;;;;12.41;24.60;102192.41;4939874;28;20039;-71
2022/03/03 08:14:49;;;;;;;32.17;18.88;;;;;;;12.52;24.99;102200.84;4927245;28;20111;-71
2022/03/03 08:17:15;;;;;;;32.78;16.85;;;;;;;12.87;24.15;102199.91;4941438;28;20681;-71
2022/03/03 08:19:44;;;;;;;34.15;18.17;;;;;;;12.97;24.36;102204.91;4925124;28;20098;-71
2022/03/03 08:22:12;;;;;;;38.67;19.25;;;;;;;12.51;25.23;102196.50;4922902;28;20036;-71
2022/03/03 08:24:42;;;;;;;34.28;18.10;;;;;;;12.28;24.52;102197.97;4925857;28;20058;-71
2022/03/03 08:27:08;;;;;;;37.55;18.02;;;;;;;12.17;24.71;102199.16;4925484;28;20050;-71
2022/03/03 08:29:34;;;;;;;36.38;19.58;;;;;;;12.08;25.25;102192.38;4922572;28;20036;-71
2022/03/03 08:32:02;;;;;;;36.13;20.05;;;;;;;12.17;25.67;102193.91;4927809;28;20037;-71
2022/03/03 08:34:42;;;;;;;39.03;19.73;;;;;;;12.66;25.04;102189.97;4926287;28;20119;-71
2022/03/03 08:37:33;;;;;;;36.65;19.23;;;;;;;12.46;24.89;102190.53;4940978;28;20232;-71
2022/03/03 08:40:00;;;;;;;37.95;20.25;;;;;;;12.02;25.56;102196.03;4927593;28;20047;-71
2022/03/03 08:42:34;;;;;;;38.30;19.42;;;;;;;12.06;25.85;102187.19;4926463;28;20130;-72
2022/03/03 08:45:02;;;;;;;32.60;18.75;;;;;;;12.00;26.30;102186.47;4926695;28;20039;-72
2022/03/03 08:47:30;;;;;;;39.97;20.45;;;;;;;11.52;25.92;102186.75;4939391;28;20038;-71
2022/03/03 08:50:09;;;;;;;36.65;20.42;;;;;;;11.42;27.33;102192.19;4927323;28;20405;-71
2022/03/03 08:52:39;;;;;;;33.38;18.42;;;;;;;11.59;26.29;102207.50;4925255;28;20090;-71
2022/03/03 08:55:07;;;;;;;36.40;18.50;;;;;;;11.13;26.65;102229.47;4941369;28;20464;-72
2022/03/03 08:57:32;;;;;;;37.20;18.75;;;;;;;10.69;27.00;102233.78;4925538;28;20086;-71
2022/03/03 08:59:58;;;;;;;39.70;18.40;;;;;;;10.81;28.27;102240.53;4921064;28;20046;-72
2022/03/03 09:02:23;;;;;;;36.35;19.85;;;;;;;10.39;28.50;102240.41;4922282;28;20053;-71
2022/03/03 09:04:49;;;;;;;39.08;18.33;;;;;;;10.14;28.96;102235.59;4935092;28;20047;-72
2022/03/03 09:07:15;;;;;;;39.20;18.58;;;;;;;10.02;28.29;102234.06;4921876;28;20055;-72
2022/03/03 09:09:41;;;;;;;36.60;18.83;;;;;;;9.11;30.01;102249.22;4925232;28;20035;-72
2022/03/03 09:12:08;;;;;;;43.42;19.42;;;;;;;7.86;32.96;102241.69;4925394;28;20147;-72
2022/03/03 09:14:35;;;;;;;33.45;17.98;;;;;;;7.92;32.46;102259.88;4924368;28;20126;-72
2022/03/03 09:17:01;;;;;;;42.58;19.38;;;;;;;7.24;32.81;102260.16;4925231;28;20496;-72
2022/03/03 09:19:27;;;;;;;33.33;17.77;;;;;;;7.22;32.76;102263.66;4937799;28;20042;-69
2022/03/03 09:21:52;;;;;;;35.20;16.70;;;;;;;7.21;33.59;102257.59;4918701;28;20504;-73
2022/03/03 09:24:18;;;;;;;34.38;16.77;;;;;;;7.23;32.75;102262.78;4924868;28;20051;-71
2022/03/03 09:26:43;;;;;;;38.60;18.30;;;;;;;7.20;33.02;102248.06;4921484;28;20294;-72
2022/03/03 09:29:09;;;;;;;36.20;17.30;;;;;;;6.97;32.82;102249.88;4921400;28;20521;-72
2022/03/03 09:31:34;;;;;;;36.85;17.67;;;;;;;6.05;34.62;102259.44;4923681;28;20036;-71
2022/03/03 09:34:00;;;;;;;29.17;15.07;;;;;;;5.70;34.58;102266.28;4923205;28;20200;-72
2022/03/03 09:36:25;;;;;;;30.75;14.35;;;;;;;5.14;35.82;102257.44;4920866;28;20093;-71
2022/03/03 09:38:51;;;;;;;29.88;15.00;;;;;;;5.88;35.62;102255.94;4920575;28;20057;-71
2022/03/03 09:41:16;;;;;;;29.73;13.25;;;;;;;6.49;33.62;102247.38;4924201;28;20596;-71
2022/03/03 09:43:42;;;;;;;27.48;14.52;;;;;;;7.01;33.67;102259.41;4921940;28;20704;-72
2022/03/03 09:46:09;;;;;;;27.70;13.40;;;;;;;7.51;33.52;102258.31;4920996;28;20511;-71
2022/03/03 09:48:35;;;;;;;31.95;13.45;;;;;;;7.22;32.96;102250.66;4924365;28;20059;-72
2022/03/03 09:51:01;;;;;;;25.42;13.18;;;;;;;7.11;33.32;102253.31;4925478;28;20047;-72
2022/03/03 09:53:27;;;;;;;27.67;13.85;;;;;;;7.05;34.16;102263.72;4923213;28;20125;-71
2022/03/03 09:55:52;;;;;;;27.85;13.85;;;;;;;6.76;34.88;102251.66;4939191;28;20130;-71
2022/03/03 09:58:18;;;;;;;28.67;13.50;;;;;;;6.92;33.00;102257.69;4920857;28;20043;-71
2022/03/03 10:00:43;;;;;;;43.50;13.35;;;;;;;6.33;33.57;102262.09;4922185;28;20188;-71
2022/03/03 10:03:13;;;;;;;25.17;13.10;;;;;;;6.07;34.62;102267.25;4937683;28;20448;-71
2022/03/03 10:05:48;;;;;;;23.05;10.30;;;;;;;6.20;34.06;102266.38;4928420;28;20031;-71
2022/03/03 10:08:22;;;;;;;25.27;11.48;;;;;;;6.41;33.63;102259.50;4929498;28;20803;-71
2022/03/03 10:10:56;;;;;;;21.38;10.75;;;;;;;6.77;32.57;102261.16;4944761;28;20028;-72
2022/03/03 10:13:22;;;;;;;28.27;10.68;;;;;;;6.83;32.54;102262.91;4929509;28;20047;-72
2022/03/03 10:15:56;;;;;;;22.55;11.27;;;;;;;7.14;32.63;102263.69;4943625;28;20439;-71
2022/03/03 10:18:23;;;;;;;20.05;9.43;;;;;;;7.16;32.55;102264.56;4924865;28;20050;-71
2022/03/03 10:20:59;;;;;;;24.38;10.35;;;;;;;7.31;32.76;102256.69;4932395;28;20031;-71
2022/03/03 10:23:36;;;;;;;17.27;8.55;;;;;;;7.53;32.24;102257.47;4930071;28;20051;-72
2022/03/03 10:26:09;;;;;;;22.63;10.07;;;;;;;8.01;31.73;102262.41;4928125;28;20036;-71
2022/03/03 10:28:36;;;;;;;17.52;7.25;;;;;;;8.48;31.63;102266.38;4927901;28;20048;-73
2022/03/03 10:31:07;;;;;;;18.35;9.18;;;;;;;7.90;31.07;102266.81;4930516;28;20158;-71
2022/03/03 10:33:35;;;;;;;15.20;7.07;;;;;;;8.01;30.97;102258.94;4929559;28;20046;-70
2022/03/03 10:36:01;;;;;;;18.00;7.93;;;;;;;8.01;31.14;102259.78;4946095;28;20043;-71
2022/03/03 10:38:27;;;;;;;15.13;7.28;;;;;;;8.25;31.12;102258.75;4927299;28;20106;-71
2022/03/03 10:40:52;;;;;;;13.32;6.18;;;;;;;8.74;30.13;102247.06;4928635;28;20168;-71
2022/03/03 10:43:18;;;;;;;13.85;6.93;;;;;;;8.68;28.81;102257.50;4931366;28;20119;-71
2022/03/03 10:45:59;;;;;;;10.88;4.72;;;;;;;8.18;28.76;102250.97;4929285;28;20035;-71
2022/03/03 10:48:26;;;;;;;12.82;4.25;;;;;;;8.64;29.43;102250.59;4928340;28;20087;-70
2022/03/03 10:50:54;;;;;;;10.95;5.40;;;;;;;9.19;28.90;102250.00;4929956;28;20042;-70
2022/03/03 10:53:22;;;;;;;9.57;5.72;;;;;;;8.91;29.16;102247.72;4927387;28;20102;-71
2022/03/03 10:56:18;;;;;;;8.13;3.13;;;;;;;9.00;27.67;102246.75;4931181;28;20039;-71
2022/03/03 10:58:48;;;;;;;10.00;3.72;;;;;;;8.89;28.40;102252.06;4928267;28;20571;-71
2022/03/03 11:01:16;;;;;;;10.98;3.15;;;;;;;8.41;26.53;102232.56;4946726;28;20042;-71
2022/03/03 11:03:49;;;;;;;9.45;3.30;;;;;;;8.50;26.79;102238.56;4927137;28;20047;-72
2022/03/03 11:06:16;;;;;;;11.80;3.47;;;;;;;8.59;27.23;102236.75;4946327;28;20043;-71
2022/03/03 11:08:42;;;;;;;6.28;3.10;;;;;;;8.45;26.47;102239.47;4927660;28;20070;-71
2022/03/03 11:11:08;;;;;;;7.65;3.03;;;;;;;8.61;27.41;102229.78;4928209;28;20130;-71